Montmorenci, IN

2:57 AM EDT on April 25, 2015 (GMT -0400)
Purdue Univ | | Change Station
CLOSE
Current Station
Airport
Location: Lafayette,
Elevation: 604 ft
Nearby Weather Stations

Elev 604 ft 40.41 °N, 86.93 °W | Updated 1 hour ago

Overcast
Overcast
51 °F
Feels Like 51 °F
N
7
Wind Variable Wind from ENE

Today
High -- | Low -- °F
--% Chance of Precip.
Yesterday
High -- | Low -- °F
Precip. -- in
6:55 AM 8:37 PM
Waxing Crescent, 43% visible
Pressure 29.85 in
Visibility 10.0 miles
Clouds Overcast 5500 ft
Dew Point 39 °F
Humidity 63%
Rainfall 0.00 in
Snow Depth Not available.
UV 0 out of 12
Pollen 10.00 out of 12
Air Quality Not available.
Flu Activity Local Activity
METAR KLAF 250554Z AUTO 06006KT 10SM OVC055 11/04 A2985 RMK AO2 SLP107 60000 T01060039 10133 20100 58010 TSNO

More Conditions Fewer Conditions

Pressure 29.85 in
Visibility 10.0 miles
Clouds Overcast 5500 ft
Dew Point 39 °F
Humidity 63%
Rainfall 0.00 in
Snow Depth Not available.
UV 0 out of 12
Pollen 10.00 out of 12
Air Quality Not available.
Flu Activity Local Activity
METAR KLAF 250554Z AUTO 06006KT 10SM OVC055 11/04 A2985 RMK AO2 SLP107 60000 T01060039 10133 20100 58010 TSNO

More Conditions Fewer Conditions

10-Day Weather Forecast

Almanac

Astronomy

Apr. 25, 2015 Rise Set
Actual Time
Civil Twilight
Nautical Twilight
Astronomical Twilight
Moon
Length of Visible Light
Length of Day
Tomorrow will be .
, % of the Moon is Illuminated

Today's Extremes

State Highs State Lows

Community

WunderPhotos

Upload Photos

1,816,624 photos uploaded!

WunderBlogs® & News

Nearby

Air Quality

  Air Quality AQ Index Pollutant
Not available.

Snow Depth

Station Depth Elevation

Earthquake Activity

City Distance Mag. Time & Date
Minimum magnitude displayed is 2.5.

Coastal Water Temperatures

Place Temperature

Stations

Nearby Weather Stations

Station Location Temp. Windchill Dew Point Humidity Wind Precip. Elev Updated Type